Kralendijk, Bonaire, Dutch Antilles Cruise Port

Bonaire has consistently been ranked as the finest snorkeling and scuba diving destination in the Caribbean for two decades. This is because of the island's diligent stewardship of its marine resources. Since 1979, all the waters of Bonaire's coast have been legally protected.

Besides snorkeling and scuba diving, there is plenty more to be done here. Bonaire has trade winds that are usually steady and wash over the island. This creates ideal conditions for windsurfing. The sere beauty of this semi-desert landscape is home to an assortment of wildlife. Atop the rock formations of Washington Slagbaai you can find iguanas toasting themselves, while they watch a vast cloud of orange-pink flamingoes drift across the bone-white salt flats. The divi-divi trees bending into the surreal sculptures of the wind, and towering cacti represent the Caribbean's diverse ecology.

Another great thing about Bonaire is that it has a yearly average temperature of 82 degrees F (27.8 degrees C) with an average water temperature of 80 degrees F (26.7 degrees C). All year, Bonaire is not likely to see more than 22 inches (56 cm) of rain. This can be attributed to its nearly constant humidity of 76% and year round sunny forecast.

Cruise Deals Including Bonaire

Date Ship Nts Destination Inside Oceanview Balcony Suite Per Night
2021-05-09 Vision Of The Seas 7 Southern Caribbean $ 1315 pp $ 1754 pp N/A $ 12555 pp $ 121 pp/pd
2021-05-30 Vision Of The Seas 7 Southern Caribbean $ 1329 pp $ 1786 pp N/A $ 3912 pp $ 121 pp/pd
2021-06-20 Vision Of The Seas 7 Southern Caribbean $ 1314 pp $ 1691 pp N/A $ 3908 pp $ 121 pp/pd
2021-07-11 Vision Of The Seas 7 Southern Caribbean $ 1177 pp $ 1397 pp N/A $ 3448 pp $ 103 pp/pd
2021-08-08 Vision Of The Seas 7 Southern Caribbean $ 1095 pp $ 1298 pp N/A $ 3279 pp $ 98 pp/pd
2021-08-27 Equinox 9 Southern Caribbean $ 2303 pp $ 2567 pp $ 2788 pp $ 6020 pp $ 109 pp/pd
2021-09-05 Vision Of The Seas 7 Southern Caribbean $ 999 pp $ 1298 pp N/A $ 3122 pp $ 89 pp/pd
2021-09-17 Equinox 9 Southern Caribbean $ 2644 pp $ 2831 pp $ 2974 pp $ 4975 pp $ 109 pp/pd
2021-10-03 Vision Of The Seas 7 Southern Caribbean $ 999 pp $ 1063 pp N/A $ 2965 pp $ 89 pp/pd
2021-10-08 Equinox 9 Southern Caribbean $ 2281 pp $ 2501 pp $ 2996 pp $ 4832 pp $ 109 pp/pd
2021-10-15 Sirena 27 World Cruise $ 3849 pp $ 4099 pp $ 5899 pp N/A $ 143 pp/pd
2021-10-19 Joy 11 Caribbean $ 1588 pp $ 1861 pp $ 2491 pp $ 2869 pp $ 144 pp/pd
2021-10-20 Equinox 9 Southern Caribbean $ 3228 pp $ 3328 pp $ 4148 pp $ 5195 pp $ 149 pp/pd
2021-10-29 Equinox 9 Southern Caribbean $ 2059 pp $ 2223 pp $ 2444 pp $ 6446 pp $ 109 pp/pd
2021-10-30 Vision Of The Seas 7 Southern Caribbean $ 1303 pp $ 1435 pp N/A $ 3605 pp $ 113 pp/pd
2021-11-02 Sky 9 Panama Canal $ 1049 pp $ 1329 pp $ 1903 pp $ 4290 pp $ 117 pp/pd
2021-11-06 Magic 8 Southern Caribbean $ 639 pp $ 2119 pp $ 2319 pp $ 3469 pp $ 80 pp/pd
2021-11-10 Rotterdam 21 Southern Caribbean $ 2349 pp $ 3199 pp $ 3199 pp N/A $ 112 pp/pd
2021-11-11 Sky 9 Panama Canal $ 1049 pp $ 1329 pp $ 1952 pp $ 4451 pp $ 117 pp/pd
2021-11-19 Equinox 9 Southern Caribbean $ 2328 pp $ 2608 pp $ 2888 pp $ 4648 pp $ 114 pp/pd
2021-11-20 Sky 9 Panama Canal $ 1049 pp $ 1329 pp $ 1987 pp $ 4101 pp $ 117 pp/pd
2021-11-21 Rotterdam 21 Southern Caribbean $ 2499 pp $ 3499 pp $ 3619 pp N/A $ 119 pp/pd
2021-11-22 Silhouette 11 Southern Caribbean $ 2749 pp $ 2899 pp $ 3169 pp $ 9214 pp $ 178 pp/pd
2021-11-26 Quest 14 Caribbean $ 2099 pp $ 2429 pp $ 3239 pp $ 5339 pp $ 150 pp/pd
2021-11-27 Horizon 8 Southern Caribbean $ 619 pp $ 799 pp $ 1014 pp $ 2294 pp $ 77 pp/pd
2021-11-28 Explorer Of The Seas 7 Southern Caribbean $ 1512 pp $ 2090 pp N/A $ 4043 pp $ 88 pp/pd
2021-11-29 Sky 9 Panama Canal $ 1049 pp $ 1329 pp $ 1903 pp $ 4262 pp $ 117 pp/pd
2021-12-01 Rotterdam 21 Southern Caribbean $ 2499 pp $ 3499 pp $ 3619 pp N/A $ 119 pp/pd
2021-12-06 Sunshine 10 Southern Caribbean $ 769 pp $ 979 pp $ 1439 pp $ 2879 pp $ 77 pp/pd
2021-12-08 Sky 9 Panama Canal $ 1049 pp $ 1329 pp $ 2176 pp $ 3793 pp $ 117 pp/pd
2021-12-10 Enchanted Princess 20 Caribbean $ 2549 pp $ 3962 pp $ 3913 pp $ 5149 pp $ 127 pp/pd
2021-12-11 Seabourn Odyssey 18 Caribbean N/A $ 8999 pp N/A $ 8999 pp $ 500 pp/pd
2021-12-12 Rotterdam 21 Southern Caribbean $ 2869 pp $ 3999 pp $ 3999 pp $ 9699 pp $ 137 pp/pd
2021-12-13 Regal Princess 16 Caribbean $ 2498 pp N/A $ 2885 pp $ 3808 pp $ 156 pp/pd
2021-12-18 Seabourn Odyssey 21 Caribbean N/A $ 10999 pp N/A $ 10999 pp $ 524 pp/pd
2021-12-20 Enchanted Princess 20 Caribbean $ 2649 pp N/A $ 4228 pp $ 5399 pp $ 132 pp/pd
2021-12-21 Regal Princess 16 Caribbean $ 2798 pp N/A $ 3600 pp $ 4598 pp $ 175 pp/pd
2021-12-23 Riviera 12 Southern Caribbean N/A $ 3449 pp $ 3999 pp N/A $ 287 pp/pd
2021-12-24 Silhouette 11 Southern Caribbean $ 3349 pp $ 3509 pp $ 3849 pp $ 8049 pp $ 210 pp/pd
2021-12-26 Explorer Of The Seas 7 Southern Caribbean $ 2253 pp $ 3014 pp N/A $ 5144 pp $ 171 pp/pd
2021-12-27 Getaway 9 Caribbean $ 1644 pp $ 1973 pp $ 2148 pp $ 2477 pp $ 183 pp/pd
2021-12-29 Regal Princess 16 Caribbean $ 2069 pp N/A $ 2860 pp $ 3799 pp $ 129 pp/pd
2022-01-02 Grandeur Of The Seas 7 Southern Caribbean $ 713 pp $ 885 pp N/A $ 2241 pp $ 54 pp/pd
2022-01-03 Constellation 11 Southern Caribbean $ 2769 pp $ 2969 pp $ 3209 pp $ 11499 pp $ 165 pp/pd
2022-01-04 Riviera 73 World Cruise $ 15999 pp $ 18449 pp $ 20949 pp $ 30699 pp $ 219 pp/pd
2022-01-05 Getaway 9 Caribbean $ 1014 pp $ 1455 pp $ 1602 pp $ 1784 pp $ 113 pp/pd
2022-01-06 Regal Princess 16 Caribbean $ 1959 pp N/A $ 2559 pp $ 3159 pp $ 122 pp/pd
2022-01-08 Horizon 8 Southern Caribbean $ 654 pp $ 799 pp $ 1179 pp $ 2269 pp $ 82 pp/pd
2022-01-09 Grandeur Of The Seas 14 Southern Caribbean $ 1535 pp $ 1827 pp N/A $ 5770 pp $ 64 pp/pd
2022-01-12 Nieuw Statendam 21 Southern Caribbean $ 2769 pp $ 3819 pp $ 3819 pp $ 5999 pp $ 132 pp/pd
2022-01-15 Freedom 8 Southern Caribbean $ 589 pp $ 709 pp $ 1024 pp $ 1834 pp $ 74 pp/pd
2022-01-16 Epic 7 Caribbean $ 755 pp N/A $ 1322 pp $ 1546 pp $ 108 pp/pd
2022-01-19 Enchanted Princess 20 Caribbean $ 2199 pp N/A $ 3598 pp $ 5199 pp $ 110 pp/pd
2022-01-20 Jewel 10 Panama Canal $ 902 pp $ 1154 pp $ 1854 pp $ 2204 pp $ 90 pp/pd
2022-01-21 Equinox 9 Southern Caribbean $ 2239 pp $ 2549 pp $ 2969 pp $ 15049 pp $ 167 pp/pd
2022-01-22 Horizon 8 Southern Caribbean $ 639 pp $ 844 pp $ 1249 pp $ 2134 pp $ 80 pp/pd
2022-01-23 Explorer Of The Seas 7 Southern Caribbean $ 1219 pp $ 1519 pp N/A $ 3259 pp $ 106 pp/pd
2022-01-29 Enchanted Princess 20 Caribbean N/A $ 3627 pp $ 3598 pp $ 4999 pp $ 180 pp/pd
2022-01-30 Jewel 11 Panama Canal $ 1126 pp $ 1378 pp $ 1994 pp $ 2449 pp $ 102 pp/pd
2022-02-02 Getaway 9 Caribbean $ 1042 pp $ 1371 pp $ 1784 pp $ 2001 pp $ 116 pp/pd
2022-02-03 Seven Seas Splendor 14 Eastern Caribbean N/A N/A N/A $ 8249 pp $ 589 pp/pd
2022-02-05 Silver Spirit 9 Caribbean N/A N/A N/A $ 4050 pp $ 450 pp/pd
2022-02-07 Riviera 12 Southern Caribbean $ 3149 pp $ 3599 pp $ 4199 pp $ 5599 pp $ 262 pp/pd
2022-02-08 Enchanted Princess 20 Caribbean $ 2390 pp N/A $ 3598 pp $ 4949 pp $ 120 pp/pd
2022-02-09 Dawn 11 Caribbean $ 1476 pp $ 1595 pp $ 2869 pp $ 3170 pp $ 134 pp/pd
2022-02-11 Sirena 12 Southern Caribbean $ 2699 pp $ 3049 pp $ 4249 pp $ 5599 pp $ 225 pp/pd
2022-02-12 Freedom 8 Southern Caribbean $ 629 pp $ 759 pp $ 1089 pp $ 1939 pp $ 79 pp/pd
2022-02-13 Grandeur Of The Seas 7 Southern Caribbean $ 870 pp $ 1055 pp N/A $ 3027 pp $ 64 pp/pd
2022-02-14 Silhouette 11 Southern Caribbean $ 2869 pp $ 2999 pp $ 3519 pp $ 10414 pp $ 172 pp/pd
2022-02-18 Enchanted Princess 20 Caribbean $ 2299 pp N/A $ 3373 pp $ 4899 pp $ 115 pp/pd
2022-02-19 Horizon 8 Southern Caribbean $ 689 pp $ 899 pp $ 1289 pp $ 2171 pp $ 86 pp/pd
2022-02-20 Grandeur Of The Seas 14 Southern Caribbean $ 1841 pp $ 2127 pp N/A $ 11912 pp $ 91 pp/pd
2022-02-21 Jewel 9 Panama Canal $ 909 pp $ 1154 pp $ 1924 pp $ 2050 pp $ 101 pp/pd
2022-02-23 Nieuw Statendam 21 Southern Caribbean $ 2919 pp $ 4099 pp $ 4099 pp $ 6299 pp $ 139 pp/pd
2022-02-26 Magic 8 Southern Caribbean $ 669 pp $ 839 pp $ 1109 pp $ 1856 pp $ 84 pp/pd
2022-02-27 Crown Princess 14 Caribbean $ 1499 pp $ 1664 pp $ 2899 pp $ 3799 pp $ 107 pp/pd
2022-02-28 Enchanted Princess 20 Caribbean $ 2299 pp $ 3436 pp $ 3238 pp $ 4899 pp $ 115 pp/pd
2022-03-02 Jewel 8 Panama Canal $ 706 pp $ 958 pp $ 1567 pp $ 1868 pp $ 88 pp/pd
2022-03-04 Equinox 9 Southern Caribbean $ 2359 pp $ 2539 pp $ 2909 pp $ 7099 pp $ 124 pp/pd
2022-03-05 Sirena 12 Southern Caribbean $ 2199 pp $ 2349 pp $ 3249 pp $ 4399 pp $ 183 pp/pd
2022-03-06 Nieuw Statendam 21 Southern Caribbean $ 2919 pp $ 4099 pp $ 4099 pp $ 6299 pp $ 139 pp/pd
2022-03-07 Silhouette 11 Southern Caribbean $ 2749 pp $ 2949 pp $ 3549 pp $ 8014 pp $ 165 pp/pd
2022-03-10 Enchanted Princess 20 Caribbean $ 2349 pp $ 3579 pp $ 3463 pp $ 5149 pp $ 117 pp/pd
2022-03-12 Freedom 8 Southern Caribbean $ 669 pp $ 809 pp $ 1169 pp $ 1919 pp $ 84 pp/pd
2022-03-13 Epic 7 Caribbean $ 846 pp N/A $ 1448 pp $ 1791 pp $ 121 pp/pd
2022-03-16 Nieuw Statendam 21 Southern Caribbean $ 2919 pp $ 4099 pp $ 4099 pp $ 6299 pp $ 139 pp/pd
2022-03-19 Seabourn Odyssey 14 Southern Caribbean N/A $ 6299 pp N/A $ 6299 pp $ 450 pp/pd
2022-03-20 Explorer Of The Seas 7 Southern Caribbean $ 1384 pp $ 1884 pp N/A $ 3656 pp $ 121 pp/pd
2022-03-25 Equinox 9 Southern Caribbean $ 2379 pp $ 2629 pp $ 2979 pp $ 10849 pp $ 124 pp/pd
2022-03-26 Seabourn Odyssey 7 Southern Caribbean N/A $ 3499 pp N/A $ 3499 pp $ 500 pp/pd
2022-03-27 Grandeur Of The Seas 7 Southern Caribbean $ 671 pp $ 857 pp N/A $ 2400 pp $ 51 pp/pd
2022-03-28 Silhouette 11 Southern Caribbean $ 2609 pp $ 2949 pp $ 3349 pp $ 8064 pp $ 150 pp/pd
2022-04-02 Crown Princess 14 Caribbean $ 1399 pp $ 1553 pp $ 2599 pp $ 3499 pp $ 100 pp/pd
2022-04-16 Seabourn Odyssey 12 Caribbean N/A $ 5499 pp N/A $ 5499 pp $ 458 pp/pd
2022-04-17 Explorer Of The Seas 7 Southern Caribbean $ 1249 pp $ 1527 pp N/A $ 3258 pp $ 103 pp/pd
2022-04-23 Magic 8 Southern Caribbean $ 669 pp $ 849 pp $ 1129 pp $ 2061 pp $ 84 pp/pd
2022-04-30 Horizon 8 Southern Caribbean $ 719 pp $ 899 pp $ 1279 pp $ 2131 pp $ 90 pp/pd
2022-05-06 Equinox 9 Southern Caribbean $ 2349 pp $ 2439 pp $ 2649 pp $ 5259 pp $ 155 pp/pd
2022-05-14 Explorer Of The Seas 8 Southern Caribbean $ 1153 pp $ 1395 pp N/A $ 2718 pp $ 81 pp/pd
2022-05-28 Horizon 8 Southern Caribbean $ 879 pp $ 1079 pp $ 1449 pp $ 2411 pp $ 110 pp/pd
2022-06-06 Crystal Esprit 7 Mediterranean N/A N/A N/A $ 8122 pp $ 1160 pp/pd
2022-06-11 Explorer Of The Seas 8 Southern Caribbean $ 1369 pp $ 1799 pp N/A $ 2969 pp $ 99 pp/pd
2022-06-25 Horizon 8 Southern Caribbean $ 979 pp $ 1199 pp $ 1639 pp $ 2389 pp $ 122 pp/pd
2022-07-09 Explorer Of The Seas 8 Southern Caribbean $ 1369 pp $ 1799 pp N/A $ 2979 pp $ 99 pp/pd
2022-07-23 Horizon 8 Southern Caribbean $ 969 pp $ 1189 pp $ 1629 pp $ 2379 pp $ 121 pp/pd
2022-08-06 Explorer Of The Seas 8 Southern Caribbean $ 1229 pp $ 1639 pp N/A $ 3099 pp $ 82 pp/pd
2022-08-20 Horizon 8 Southern Caribbean $ 719 pp $ 879 pp $ 1229 pp $ 1899 pp $ 90 pp/pd
2022-09-03 Explorer Of The Seas 8 Southern Caribbean $ 1083 pp $ 1699 pp N/A $ 2699 pp $ 81 pp/pd
2022-09-08 Equinox 9 Southern Caribbean $ 2209 pp $ 2289 pp $ 2519 pp $ 3359 pp $ 162 pp/pd
2022-09-17 Equinox 9 Southern Caribbean $ 2259 pp $ 2339 pp $ 2569 pp $ 3409 pp $ 167 pp/pd
2022-10-01 Explorer Of The Seas 8 Southern Caribbean $ 1109 pp $ 1659 pp N/A $ 2299 pp $ 78 pp/pd
2022-10-06 Equinox 9 Southern Caribbean $ 2309 pp $ 2369 pp $ 2629 pp $ 6509 pp $ 174 pp/pd
2022-10-15 Summit 12 Repositioning $ 3164 pp $ 3164 pp $ 3284 pp $ 3274 pp $ 185 pp/pd
2022-10-22 Freedom 8 Southern Caribbean $ 599 pp $ 729 pp $ 999 pp $ 1609 pp $ 75 pp/pd
2022-10-23 Seven Seas Navigator 14 Bermuda N/A N/A N/A $ 7699 pp $ 550 pp/pd
2022-10-29 Explorer Of The Seas 8 Southern Caribbean $ 1069 pp $ 1146 pp N/A $ 2626 pp $ 77 pp/pd
2022-11-03 Equinox 9 Southern Caribbean $ 2419 pp $ 2479 pp $ 2729 pp $ 3779 pp $ 183 pp/pd
2022-11-12 Horizon 8 Southern Caribbean $ 629 pp $ 779 pp $ 1079 pp $ 1741 pp $ 79 pp/pd
2022-11-13 Silver Moon 11 Caribbean N/A N/A N/A $ 4680 pp $ 425 pp/pd
2022-11-19 Freedom 8 Southern Caribbean $ 659 pp $ 799 pp $ 1059 pp $ 1519 pp $ 82 pp/pd
2022-11-21 Edge 11 Transcanal $ 5478 pp $ 6218 pp $ 7058 pp $ 31299 pp $ 234 pp/pd
2022-11-24 Jewel 9 Panama Canal $ 923 pp $ 1224 pp $ 1875 pp $ 2225 pp $ 103 pp/pd
2022-11-27 Dawn 14 Caribbean $ 1357 pp $ 1763 pp $ 2729 pp $ 3296 pp $ 97 pp/pd
2022-11-28 Sirena 22 World Cruise $ 2599 pp $ 3099 pp $ 4899 pp $ 6999 pp $ 118 pp/pd
2022-12-03 Jewel 9 Panama Canal $ 923 pp $ 1224 pp $ 1777 pp $ 2127 pp $ 103 pp/pd
2022-12-05 Sunshine 10 Southern Caribbean $ 719 pp $ 959 pp $ 1349 pp $ 2149 pp $ 72 pp/pd
2022-12-10 Horizon 8 Southern Caribbean $ 629 pp $ 799 pp $ 1139 pp $ 1801 pp $ 79 pp/pd
2022-12-20 Sirena 22 World Cruise $ 4549 pp $ 4949 pp $ 7249 pp $ 10849 pp $ 207 pp/pd
2022-12-21 Pearl 12 Panama Canal $ 1735 pp $ 2183 pp $ 3513 pp $ 4213 pp $ 145 pp/pd
2022-12-22 Edge 11 Transcanal $ 4049 pp $ 4419 pp $ 4789 pp $ 6349 pp $ 291 pp/pd
2022-12-23 Encore 11 Caribbean $ 2673 pp $ 3177 pp $ 3555 pp $ 3905 pp $ 243 pp/pd
2022-12-30 Sirena 12 Southern Caribbean $ 2599 pp $ 2849 pp $ 4199 pp $ 6199 pp $ 217 pp/pd
2022-12-31 Magic 8 Southern Caribbean $ 919 pp $ 1139 pp $ 1389 pp $ 1951 pp $ 115 pp/pd
2023-01-02 Edge 11 Southern Caribbean $ 4448 pp $ 5248 pp $ 6148 pp $ 31199 pp $ 210 pp/pd
2023-01-07 Horizon 8 Southern Caribbean $ 629 pp $ 809 pp $ 1179 pp $ 1921 pp $ 79 pp/pd
2023-01-08 Epic 7 Caribbean $ 902 pp N/A $ 1364 pp $ 1511 pp $ 129 pp/pd
2023-01-12 Equinox 9 Southern Caribbean $ 2519 pp $ 2579 pp $ 2809 pp $ 3669 pp $ 193 pp/pd
2023-01-14 Freedom 8 Southern Caribbean $ 579 pp $ 709 pp $ 969 pp $ 1479 pp $ 72 pp/pd
2023-01-15 Epic 7 Caribbean $ 902 pp N/A $ 1364 pp $ 1511 pp $ 129 pp/pd
2023-01-21 Seven Seas Splendor 11 Eastern Caribbean N/A N/A N/A $ 6499 pp $ 591 pp/pd
2023-01-22 Epic 7 Caribbean $ 902 pp N/A $ 1364 pp $ 1511 pp $ 129 pp/pd
2023-01-23 Seven Seas Navigator 11 Eastern Caribbean N/A N/A N/A $ 5499 pp $ 500 pp/pd
2023-01-26 Jewel 9 Panama Canal $ 923 pp $ 1224 pp $ 1777 pp $ 2127 pp $ 103 pp/pd
2023-01-28 Millennium 7 Southern Caribbean $ 2578 pp $ 2798 pp $ 3238 pp $ 4839 pp $ 166 pp/pd
2023-01-29 Epic 7 Caribbean $ 923 pp N/A $ 1392 pp $ 1539 pp $ 132 pp/pd
2023-02-04 Jewel 9 Panama Canal $ 923 pp $ 1224 pp $ 1777 pp $ 2127 pp $ 103 pp/pd
2023-02-05 Epic 7 Caribbean $ 944 pp N/A $ 1413 pp $ 1560 pp $ 135 pp/pd
2023-02-08 Silver Dawn 10 Caribbean N/A N/A N/A $ 4680 pp $ 468 pp/pd
2023-02-11 Freedom 8 Southern Caribbean $ 639 pp $ 769 pp $ 1059 pp $ 1569 pp $ 80 pp/pd
2023-02-12 Epic 7 Caribbean $ 944 pp N/A $ 1413 pp $ 1560 pp $ 135 pp/pd
2023-02-13 Jewel 9 Panama Canal $ 923 pp $ 1224 pp $ 1777 pp $ 2127 pp $ 103 pp/pd
2023-02-18 Equinox 9 Southern Caribbean $ 2679 pp $ 2739 pp $ 2969 pp $ 3829 pp $ 209 pp/pd
2023-02-19 Sirena 12 Southern Caribbean $ 2799 pp $ 3049 pp $ 4199 pp $ 5499 pp $ 233 pp/pd
2023-02-22 Jewel 10 Panama Canal $ 1021 pp $ 1322 pp $ 1959 pp $ 2358 pp $ 102 pp/pd
2023-02-25 Millennium 7 Southern Caribbean $ 2758 pp $ 2978 pp $ 3478 pp $ 4929 pp $ 177 pp/pd
2023-02-26 Epic 7 Caribbean $ 972 pp N/A $ 1441 pp $ 1595 pp $ 139 pp/pd
2023-03-03 Sirena 7 Southern Caribbean $ 1499 pp $ 1649 pp $ 2199 pp $ 2999 pp $ 214 pp/pd
2023-03-04 Jewel 8 Panama Canal $ 846 pp $ 1126 pp $ 1665 pp $ 1966 pp $ 106 pp/pd
2023-03-05 Epic 7 Caribbean $ 986 pp N/A $ 1462 pp $ 1609 pp $ 141 pp/pd
2023-03-09 Equinox 9 Southern Caribbean $ 2629 pp $ 2709 pp $ 2939 pp $ 3779 pp $ 204 pp/pd
2023-03-10 Sirena 10 Southern Caribbean $ 2199 pp $ 2449 pp $ 3299 pp $ 4299 pp $ 220 pp/pd
2023-03-11 Freedom 8 Southern Caribbean $ 679 pp $ 819 pp $ 1119 pp $ 1599 pp $ 85 pp/pd
2023-03-12 Epic 7 Caribbean $ 986 pp N/A $ 1462 pp $ 1609 pp $ 141 pp/pd
2023-03-13 Silver Dawn 10 Caribbean N/A N/A N/A $ 4590 pp $ 459 pp/pd
2023-03-18 Equinox 9 Southern Caribbean $ 2679 pp $ 2759 pp $ 3039 pp $ 3829 pp $ 209 pp/pd
2023-03-19 Epic 7 Caribbean $ 986 pp N/A $ 1462 pp $ 1609 pp $ 141 pp/pd
2023-03-25 Millennium 7 Southern Caribbean $ 2798 pp $ 2998 pp $ 3378 pp $ 4939 pp $ 180 pp/pd
2023-03-26 Epic 7 Caribbean $ 986 pp N/A $ 1462 pp $ 1609 pp $ 141 pp/pd
2023-03-27 Edge 11 Transcanal $ 3399 pp $ 6018 pp $ 6958 pp $ 31199 pp $ 232 pp/pd
2023-04-01 Horizon 8 Southern Caribbean $ 759 pp $ 939 pp $ 1349 pp $ 2091 pp $ 95 pp/pd
2023-04-02 Epic 7 Caribbean $ 986 pp N/A $ 1462 pp $ 1609 pp $ 141 pp/pd
2023-04-06 Equinox 9 Southern Caribbean $ 2679 pp $ 2759 pp $ 2989 pp $ 3829 pp $ 209 pp/pd
2023-04-08 Freedom 8 Southern Caribbean $ 679 pp $ 819 pp $ 1119 pp $ 1599 pp $ 85 pp/pd
2023-04-09 Epic 7 Caribbean $ 1035 pp N/A $ 1560 pp $ 1665 pp $ 148 pp/pd
2023-04-15 Equinox 9 Southern Caribbean $ 2679 pp $ 2739 pp $ 2969 pp $ 3829 pp $ 209 pp/pd
2023-04-22 Millennium 7 Southern Caribbean $ 2578 pp $ 2798 pp $ 3158 pp $ 4839 pp $ 166 pp/pd
2023-04-29 Horizon 8 Southern Caribbean $ 719 pp $ 899 pp $ 1279 pp $ 2021 pp $ 90 pp/pd
2023-06-12 Crystal Esprit 7 Mediterranean N/A N/A N/A $ 6917 pp $ 988 pp/pd
?>